createdAt,value
2022-12-12T00:02:11.609Z,52395.65
2022-12-12T00:04:41.489Z,52392.03
2022-12-12T00:07:11.217Z,52400.87
2022-12-12T00:09:40.927Z,52387.21
2022-12-12T00:12:11.166Z,52381.58
2022-12-12T00:14:40.925Z,52385.20
2022-12-12T00:17:10.686Z,52388.41
2022-12-12T00:19:40.351Z,52399.26
2022-12-12T00:22:10.088Z,52388.01
2022-12-12T00:24:39.802Z,52393.23
2022-12-12T00:27:09.490Z,52398.05
2022-12-12T00:29:39.323Z,52404.89
2022-12-12T00:32:09.087Z,52389.21
2022-12-12T00:34:38.765Z,52379.57
2022-12-12T00:37:08.550Z,52389.62
2022-12-12T00:39:38.549Z,52384.80
2022-12-12T00:42:08.256Z,52402.07
2022-12-12T00:44:38.277Z,52392.83
2022-12-12T00:47:08.012Z,52392.84
2022-12-12T00:49:37.876Z,52395.64
2022-12-12T00:52:07.733Z,52398.46
2022-12-12T00:54:37.492Z,52412.93
2022-12-12T00:57:07.318Z,52391.63
2022-12-12T00:59:37.090Z,52397.66
2022-12-12T01:02:06.875Z,52395.24
2022-12-12T01:04:36.956Z,52396.45
2022-12-12T01:07:06.645Z,52390.82
2022-12-12T01:09:36.432Z,52406.09
2022-12-12T01:12:06.287Z,52398.46
2022-12-12T01:14:36.074Z,52383.99
2022-12-12T01:17:05.839Z,52406.90
2022-12-12T01:19:35.606Z,52409.71
2022-12-12T01:22:05.448Z,52414.13
2022-12-12T01:24:35.301Z,52412.52
2022-12-12T01:27:05.166Z,52393.23
2022-12-12T01:29:35.992Z,52406.50
2022-12-12T01:32:05.914Z,52391.23
2022-12-12T01:34:35.702Z,52379.17
2022-12-12T01:37:05.380Z,52406.90
2022-12-12T01:39:35.073Z,52396.05
2022-12-12T01:42:05.000Z,52410.11
2022-12-12T01:44:42.800Z,52390.42
2022-12-12T01:47:12.523Z,52386.00
2022-12-12T01:49:42.336Z,52397.25
2022-12-12T01:52:12.797Z,52403.29
2022-12-12T01:54:43.204Z,52403.29
2022-12-12T01:57:14.055Z,52416.14
2022-12-12T01:59:43.853Z,52408.51
2022-12-12T02:02:13.651Z,52406.90
2022-12-12T02:04:43.380Z,52391.23
2022-12-12T02:07:13.071Z,52394.44
2022-12-12T02:09:42.855Z,52416.54
2022-12-12T02:12:14.576Z,52407.30
2022-12-12T02:14:46.923Z,52412.13
2022-12-12T02:17:41.603Z,52385.60
2022-12-12T02:20:31.000Z,52386.00
2022-12-12T02:23:06.390Z,52404.49
2022-12-12T02:25:49.574Z,52390.42
2022-12-12T02:28:28.450Z,52379.57
2022-12-12T02:31:03.841Z,52406.90
2022-12-12T02:33:34.189Z,52392.03
2022-12-12T02:36:06.192Z,52397.65
2022-12-12T02:38:38.264Z,52409.71
2022-12-12T02:41:12.251Z,52396.45
2022-12-12T02:43:42.748Z,52415.34
2022-12-12T02:46:14.924Z,52410.51
2022-12-12T02:48:46.521Z,52392.83
2022-12-12T02:51:16.427Z,52382.38
2022-12-12T02:53:46.236Z,52417.35
2022-12-12T02:56:29.349Z,52423.38
2022-12-12T02:58:59.069Z,52402.88
2022-12-12T03:01:33.221Z,52400.47
2022-12-12T03:04:21.191Z,52409.71
2022-12-12T03:07:11.812Z,52408.91
2022-12-12T03:09:46.165Z,52395.64
2022-12-12T03:12:18.313Z,52414.13
2022-12-12T03:14:51.277Z,52404.09
2022-12-12T03:17:23.191Z,52406.90
2022-12-12T03:19:55.423Z,52421.36
2022-12-12T03:22:26.010Z,52392.03
2022-12-12T03:24:57.280Z,52399.66
2022-12-12T03:27:27.720Z,52413.32
2022-12-12T03:29:58.115Z,52404.89
2022-12-12T03:32:29.093Z,52407.70
2022-12-12T03:34:59.576Z,52421.77
2022-12-12T03:37:29.712Z,52400.87
2022-12-12T03:39:59.879Z,52407.30
2022-12-12T03:42:30.344Z,52409.71
2022-12-12T03:45:01.854Z,52418.15
2022-12-12T03:47:32.548Z,52416.14
2022-12-12T03:50:03.230Z,52421.77
2022-12-12T03:52:33.625Z,52409.71
2022-12-12T03:55:03.820Z,52412.12
2022-12-12T03:57:34.027Z,52422.17
2022-12-12T04:00:05.961Z,52404.89
2022-12-12T04:02:43.220Z,52421.77
2022-12-12T04:05:15.035Z,52426.59
2022-12-12T04:07:45.642Z,52424.18
2022-12-12T04:10:33.264Z,52424.58
2022-12-12T04:13:05.552Z,52422.17
2022-12-12T04:15:47.944Z,52428.20
2022-12-12T04:18:20.169Z,52429.41
2022-12-12T04:21:10.055Z,52429.80
2022-12-12T04:23:41.796Z,52425.38
2022-12-12T04:26:31.085Z,52431.41
2022-12-12T04:29:03.244Z,52433.02
2022-12-12T04:31:33.146Z,52431.81
2022-12-12T04:34:03.981Z,52435.84
2022-12-12T04:36:33.864Z,52424.98
2022-12-12T04:39:03.614Z,52433.82
2022-12-12T04:41:34.027Z,52403.68
2022-12-12T04:44:03.794Z,52431.81
2022-12-12T04:46:33.563Z,52429.80
2022-12-12T04:49:03.584Z,52445.48
2022-12-12T04:51:34.367Z,52421.37
2022-12-12T04:54:07.315Z,52414.54
2022-12-12T04:56:37.208Z,52422.97
2022-12-12T04:59:07.038Z,52429.80
2022-12-12T05:01:38.949Z,52437.84
2022-12-12T05:04:09.554Z,52425.79
2022-12-12T05:06:40.649Z,52412.52
2022-12-12T05:09:12.109Z,52411.32
2022-12-12T05:11:41.838Z,52429.80
2022-12-12T05:14:11.834Z,52426.59
2022-12-12T05:16:42.595Z,52431.81
2022-12-12T05:19:12.367Z,52440.26
2022-12-12T05:21:42.139Z,52413.32
2022-12-12T05:24:12.133Z,52433.02
2022-12-12T05:26:42.555Z,52429.00
2022-12-12T05:29:12.310Z,52434.63
2022-12-12T05:31:42.116Z,52438.24
2022-12-12T05:34:12.157Z,52419.76
2022-12-12T05:36:42.260Z,52424.58
2022-12-12T05:39:12.069Z,52423.38
2022-12-12T05:41:42.158Z,52428.60
2022-12-12T05:44:11.969Z,52442.26
2022-12-12T05:46:42.196Z,52413.32
2022-12-12T05:49:12.133Z,52435.83
2022-12-12T05:51:42.066Z,52429.80
2022-12-12T05:54:12.024Z,52432.21
2022-12-12T05:56:42.297Z,52424.58
2022-12-12T05:59:12.795Z,52422.17
2022-12-12T06:01:42.720Z,52419.76
2022-12-12T06:04:12.561Z,52410.92
2022-12-12T06:06:42.384Z,52414.93
2022-12-12T06:09:12.847Z,52435.84
2022-12-12T06:11:42.968Z,52436.64
2022-12-12T06:14:13.038Z,52434.23
2022-12-12T06:16:42.930Z,52410.91
2022-12-12T06:19:12.849Z,52431.01
2022-12-12T06:21:42.818Z,52424.58
2022-12-12T06:24:12.633Z,52422.57
2022-12-12T06:26:42.684Z,52422.97
2022-12-12T06:29:13.116Z,52410.92
2022-12-12T06:31:44.090Z,52422.17
2022-12-12T06:34:14.337Z,52422.98
2022-12-12T06:36:44.400Z,52423.38
2022-12-12T06:39:14.271Z,52420.16
2022-12-12T06:41:44.792Z,52422.17
2022-12-12T06:44:19.790Z,52404.09
2022-12-12T06:46:50.091Z,52441.86
2022-12-12T06:49:20.121Z,52422.98
2022-12-12T06:51:50.234Z,52439.45
2022-12-12T06:54:20.545Z,52424.58
2022-12-12T06:56:50.399Z,52413.73
2022-12-12T06:59:21.018Z,52427.79
2022-12-12T07:01:51.003Z,52418.55
2022-12-12T07:04:21.220Z,52411.72
2022-12-12T07:06:52.553Z,52418.96
2022-12-12T07:09:22.382Z,52423.38
2022-12-12T07:11:52.100Z,52418.15
2022-12-12T07:14:21.988Z,52440.66
2022-12-12T07:16:51.927Z,52432.63
2022-12-12T07:19:22.916Z,52426.18
2022-12-12T07:21:52.676Z,52437.44
2022-12-12T07:24:22.768Z,52420.96
2022-12-12T07:26:52.761Z,52424.58
2022-12-12T07:29:22.482Z,52408.91
2022-12-12T07:31:52.330Z,52429.41
2022-12-12T07:34:22.087Z,52441.46
2022-12-12T07:36:52.012Z,52445.07
2022-12-12T07:39:21.936Z,52432.22
2022-12-12T07:41:51.921Z,52414.54
2022-12-12T07:44:24.608Z,52414.13
2022-12-12T07:46:54.526Z,52421.37
2022-12-12T07:49:24.357Z,52425.79
2022-12-12T07:51:54.510Z,52425.38
2022-12-12T07:54:24.236Z,52420.96
2022-12-12T07:56:54.081Z,52432.21
2022-12-12T07:59:23.983Z,52431.41
2022-12-12T08:01:53.819Z,52441.86
2022-12-12T08:04:24.080Z,52438.24
2022-12-12T08:07:00.633Z,52436.24
2022-12-12T08:09:33.082Z,52441.46
2022-12-12T08:12:03.016Z,52428.20
2022-12-12T08:14:32.920Z,52428.60
2022-12-12T08:17:02.851Z,52439.05
2022-12-12T08:19:32.661Z,52421.37
2022-12-12T08:22:02.558Z,52431.41
2022-12-12T08:24:32.207Z,52432.62
2022-12-12T08:27:02.059Z,52438.65
2022-12-12T08:29:31.751Z,52443.47
2022-12-12T08:32:01.526Z,52436.24
2022-12-12T08:34:31.310Z,52443.47
2022-12-12T08:37:01.077Z,52432.22
2022-12-12T08:39:31.302Z,52442.66
2022-12-12T08:42:01.658Z,52432.22
2022-12-12T08:44:31.452Z,52447.89
2022-12-12T08:47:01.340Z,52435.03
2022-12-12T08:49:32.068Z,52446.28
2022-12-12T08:52:02.001Z,52435.43
2022-12-12T08:54:31.862Z,52445.07
2022-12-12T08:57:01.621Z,52444.68
2022-12-12T08:59:31.536Z,52437.84
2022-12-12T09:02:01.778Z,52445.07
2022-12-12T09:04:32.036Z,52453.11
2022-12-12T09:07:08.115Z,52438.64
2022-12-12T09:09:41.142Z,52449.10
2022-12-12T09:12:11.499Z,52443.88
2022-12-12T09:14:41.192Z,52453.51
2022-12-12T09:17:10.963Z,52442.26
2022-12-12T09:19:40.713Z,52442.66
2022-12-12T09:22:10.751Z,52453.92
2022-12-12T09:24:40.717Z,52446.69
2022-12-12T09:27:10.458Z,52440.25
2022-12-12T09:29:40.445Z,52447.89
2022-12-12T09:32:10.204Z,52426.59
2022-12-12T09:34:40.082Z,52446.68
2022-12-12T09:37:09.895Z,52457.94
2022-12-12T09:39:39.885Z,52416.95
2022-12-12T09:42:13.788Z,52449.09
2022-12-12T09:44:43.632Z,52461.16
2022-12-12T09:47:15.233Z,52444.68
2022-12-12T09:49:46.652Z,52449.90
2022-12-12T09:52:16.426Z,52472.01
2022-12-12T09:54:46.240Z,52442.66
2022-12-12T09:57:19.722Z,52445.88
2022-12-12T09:59:50.755Z,52451.91
2022-12-12T10:02:34.201Z,52449.90
2022-12-12T10:05:05.281Z,52450.70
2022-12-12T10:07:36.196Z,52430.61
2022-12-12T10:10:08.301Z,52430.21
2022-12-12T10:12:38.352Z,52451.91
2022-12-12T10:15:08.958Z,52439.85
2022-12-12T10:17:39.236Z,52451.51
2022-12-12T10:20:12.725Z,52457.94
2022-12-12T10:22:45.079Z,52454.73
2022-12-12T10:25:20.219Z,52455.13
2022-12-12T10:27:49.972Z,52445.07
2022-12-12T10:30:20.524Z,52458.34
2022-12-12T10:33:04.849Z,52449.09
2022-12-12T10:35:39.117Z,52453.92
2022-12-12T10:38:11.555Z,52453.52
2022-12-12T10:40:46.850Z,52460.35
2022-12-12T10:43:19.142Z,52455.52
2022-12-12T10:45:51.148Z,52450.71
2022-12-12T10:48:21.271Z,52449.90
2022-12-12T10:50:52.307Z,52454.73
2022-12-12T10:53:23.153Z,52465.98
2022-12-12T10:55:56.855Z,52448.29
2022-12-12T10:58:27.170Z,52451.11
2022-12-12T11:01:02.399Z,52449.09
2022-12-12T11:03:33.726Z,52451.91
2022-12-12T11:06:04.625Z,52449.90
2022-12-12T11:08:38.298Z,52458.34
2022-12-12T11:11:10.023Z,52442.26
2022-12-12T11:13:46.760Z,52449.50
2022-12-12T11:16:17.509Z,52457.94
2022-12-12T11:19:00.285Z,52453.92
2022-12-12T11:21:30.667Z,52436.64
2022-12-12T11:24:00.472Z,52441.46
2022-12-12T11:26:31.587Z,52453.92
2022-12-12T11:29:02.584Z,52437.44
2022-12-12T11:31:32.833Z,52448.29
2022-12-12T11:34:03.470Z,52457.13
2022-12-12T11:36:34.100Z,52463.16
2022-12-12T11:39:05.049Z,52447.09
2022-12-12T11:41:35.182Z,52469.20
2022-12-12T11:44:05.121Z,52457.13
2022-12-12T11:46:34.969Z,52455.52
2022-12-12T11:49:05.388Z,52449.90
2022-12-12T11:51:39.486Z,52453.92
2022-12-12T11:54:12.731Z,52459.14
2022-12-12T11:56:46.819Z,52449.09
2022-12-12T11:59:29.902Z,52441.06
2022-12-12T12:02:00.945Z,52440.26
2022-12-12T12:04:40.482Z,52433.43
2022-12-12T12:07:18.080Z,52470.39
2022-12-12T12:09:49.184Z,52451.11
2022-12-12T12:12:19.171Z,52447.89
2022-12-12T12:14:53.655Z,52454.72
2022-12-12T12:17:25.231Z,52435.83
2022-12-12T12:19:56.496Z,52454.72
2022-12-12T12:22:27.288Z,52451.51
2022-12-12T12:25:01.148Z,52450.30
2022-12-12T12:27:33.270Z,52463.56
2022-12-12T12:30:07.647Z,52442.26
2022-12-12T12:32:39.438Z,52452.31
2022-12-12T12:35:12.861Z,52451.11
2022-12-12T12:37:46.324Z,52440.66
2022-12-12T12:40:19.220Z,52448.29
2022-12-12T12:42:57.055Z,52449.90
2022-12-12T12:45:29.390Z,52441.86
2022-12-12T12:47:59.281Z,52463.56
2022-12-12T12:50:29.300Z,52456.33
2022-12-12T12:53:00.578Z,52446.69
2022-12-12T12:55:31.305Z,52463.56
2022-12-12T12:58:01.041Z,52461.15
2022-12-12T13:00:31.550Z,52448.29
2022-12-12T13:03:04.410Z,52447.89
2022-12-12T13:05:35.113Z,52448.29
2022-12-12T13:08:06.073Z,52471.20
2022-12-12T13:10:35.919Z,52450.71
2022-12-12T13:13:07.902Z,52453.51
2022-12-12T13:15:40.275Z,52452.31
2022-12-12T13:18:12.214Z,52453.51
2022-12-12T13:20:42.527Z,52458.34
2022-12-12T13:23:17.820Z,52449.49
2022-12-12T13:25:50.080Z,52458.74
2022-12-12T13:28:22.529Z,52461.55
2022-12-12T13:30:57.394Z,52447.89
2022-12-12T13:33:31.756Z,52471.60
2022-12-12T13:36:02.748Z,52450.71
2022-12-12T13:38:32.858Z,52463.56
2022-12-12T13:41:03.482Z,52457.13
2022-12-12T13:43:43.068Z,52462.36
2022-12-12T13:46:44.648Z,52453.92
2022-12-12T13:49:18.962Z,52471.20
2022-12-12T13:51:49.032Z,52473.21
2022-12-12T13:54:36.857Z,52469.59
2022-12-12T13:57:11.754Z,52464.36
2022-12-12T13:59:59.165Z,52471.20
2022-12-12T14:02:30.104Z,52461.15
2022-12-12T14:05:08.873Z,52456.33
2022-12-12T14:07:38.914Z,52438.65
2022-12-12T14:10:18.967Z,52465.57
2022-12-12T14:12:48.760Z,52443.47
2022-12-12T14:15:22.557Z,52446.28
2022-12-12T14:17:56.870Z,52451.11
2022-12-12T14:20:28.223Z,52436.64
2022-12-12T14:23:25.667Z,52461.96
2022-12-12T14:25:55.645Z,52452.30
2022-12-12T14:28:26.201Z,52447.89
2022-12-12T14:31:05.791Z,52456.73
2022-12-12T14:33:58.727Z,52461.16
2022-12-12T14:36:33.023Z,52451.91
2022-12-12T14:39:05.919Z,52471.20
2022-12-12T14:41:36.038Z,52448.29
2022-12-12T14:44:36.900Z,52449.90
2022-12-12T14:46:56.378Z,52459.95
2022-12-12T14:49:26.574Z,52469.59
2022-12-12T14:51:57.042Z,52447.09
2022-12-12T14:54:27.457Z,52438.64
2022-12-12T14:56:59.155Z,52470.39
2022-12-12T14:59:29.122Z,52467.18
2022-12-12T15:01:59.631Z,52453.92
2022-12-12T15:04:30.288Z,52447.89
2022-12-12T15:07:00.373Z,52447.49
2022-12-12T15:09:31.257Z,52439.86
2022-12-12T15:12:13.964Z,52455.52
2022-12-12T15:14:53.106Z,52449.90
2022-12-12T15:17:23.875Z,52469.59
2022-12-12T15:19:53.990Z,52441.05
2022-12-12T15:22:25.035Z,52449.50
2022-12-12T15:24:55.098Z,52447.49
2022-12-12T15:27:26.474Z,52440.26
2022-12-12T15:29:56.981Z,52451.91
2022-12-12T15:32:27.170Z,52465.18
2022-12-12T15:35:04.545Z,52461.95
2022-12-12T15:37:34.412Z,52450.30
2022-12-12T15:40:20.181Z,52456.73
2022-12-12T15:42:51.893Z,52465.57
2022-12-12T15:45:23.421Z,52456.73
2022-12-12T15:47:54.764Z,52459.95
2022-12-12T15:50:25.440Z,52445.08
2022-12-12T15:53:05.732Z,52435.44
2022-12-12T15:55:35.936Z,52452.71
2022-12-12T15:58:05.949Z,52442.66
2022-12-12T16:00:38.475Z,52443.47
2022-12-12T16:03:20.869Z,52445.08
2022-12-12T16:06:03.431Z,52447.89
2022-12-12T16:08:48.723Z,52450.30
2022-12-12T16:11:39.329Z,52441.05
2022-12-12T16:14:24.943Z,52443.88
2022-12-12T16:16:56.342Z,52421.37
2022-12-12T16:19:44.597Z,52439.45
2022-12-12T16:22:28.464Z,52424.98
2022-12-12T16:24:59.623Z,52436.24
2022-12-12T16:27:29.414Z,52422.57
2022-12-12T16:29:59.286Z,52426.59
2022-12-12T16:32:29.414Z,52447.09
2022-12-12T16:34:59.268Z,52441.86
2022-12-12T16:37:29.034Z,52433.02
2022-12-12T16:39:59.025Z,52441.05
2022-12-12T16:42:28.844Z,52435.43
2022-12-12T16:44:58.661Z,52426.99
2022-12-12T16:47:29.684Z,52441.86
2022-12-12T16:49:59.514Z,52434.63
2022-12-12T16:52:29.980Z,52448.29
2022-12-12T16:54:59.765Z,52435.03
2022-12-12T16:57:29.785Z,52431.41
2022-12-12T16:59:59.791Z,52434.23
2022-12-12T17:02:30.913Z,52429.80
2022-12-12T17:05:01.728Z,52436.64
2022-12-12T17:07:31.869Z,52432.21
2022-12-12T17:10:01.852Z,52421.77
2022-12-12T17:12:32.170Z,52433.02
2022-12-12T17:15:02.364Z,52450.71
2022-12-12T17:17:32.643Z,52447.49
2022-12-12T17:20:02.862Z,52430.21
2022-12-12T17:22:33.331Z,52451.11
2022-12-12T17:25:03.553Z,52438.24
2022-12-12T17:27:33.501Z,52448.29
2022-12-12T17:30:04.195Z,52429.00
2022-12-12T17:32:34.326Z,52455.52
2022-12-12T17:35:04.618Z,52455.93
2022-12-12T17:37:34.559Z,52462.76
2022-12-12T17:40:04.663Z,52435.83
2022-12-12T17:42:34.493Z,52460.35
2022-12-12T17:45:04.759Z,52460.35
2022-12-12T17:47:35.000Z,52467.58
2022-12-12T17:50:05.045Z,52456.33
2022-12-12T17:52:35.302Z,52475.22
2022-12-12T17:55:55.342Z,52451.91
2022-12-12T17:57:56.378Z,52470.80
2022-12-12T18:00:27.124Z,52452.31
2022-12-12T18:02:57.157Z,52457.13
2022-12-12T18:05:27.464Z,52469.19
2022-12-12T18:07:57.864Z,52466.38
2022-12-12T18:10:27.795Z,52451.51
2022-12-12T18:12:58.071Z,52477.63
2022-12-12T18:15:28.541Z,52464.37
2022-12-12T18:17:58.505Z,52462.76
2022-12-12T18:20:31.245Z,52466.77
2022-12-12T18:23:01.411Z,52461.55
2022-12-12T18:25:31.264Z,52459.95
2022-12-12T18:28:01.397Z,52445.88
2022-12-12T18:30:31.562Z,52463.56
2022-12-12T18:33:03.233Z,52472.80
2022-12-12T18:35:33.443Z,52463.16
2022-12-12T18:38:03.347Z,52454.73
2022-12-12T18:40:33.221Z,52469.99
2022-12-12T18:43:03.821Z,52465.57
2022-12-12T18:45:33.815Z,52457.13
2022-12-12T18:48:03.997Z,52476.43
2022-12-12T18:50:34.150Z,52469.59
2022-12-12T18:53:04.300Z,52461.55
2022-12-12T18:55:34.860Z,52466.77
2022-12-12T18:58:04.854Z,52470.39
2022-12-12T19:00:34.856Z,52475.62
2022-12-12T19:03:06.571Z,52465.57
2022-12-12T19:05:40.651Z,52481.65
2022-12-12T19:08:11.096Z,52469.99
2022-12-12T19:10:41.206Z,52480.04
2022-12-12T19:13:10.907Z,52484.46
2022-12-12T19:15:41.006Z,52481.65
2022-12-12T19:18:11.048Z,52486.07
2022-12-12T19:20:40.969Z,52468.39
2022-12-12T19:23:10.670Z,52456.73
2022-12-12T19:25:43.051Z,52461.96
2022-12-12T19:28:13.459Z,52483.66
2022-12-12T19:30:43.606Z,52466.77
2022-12-12T19:33:13.725Z,52490.89
2022-12-12T19:35:44.098Z,52470.79
2022-12-12T19:38:14.012Z,52472.80
2022-12-12T19:40:43.650Z,52503.35
2022-12-12T19:43:13.520Z,52485.26
2022-12-12T19:45:43.396Z,52483.66
2022-12-12T19:48:13.334Z,52484.46
2022-12-12T19:50:43.034Z,52478.44
2022-12-12T19:53:13.473Z,52472.41
2022-12-12T19:55:49.174Z,52463.56
2022-12-12T19:58:19.066Z,52476.02
2022-12-12T20:00:50.794Z,52493.71
2022-12-12T20:03:21.998Z,52471.60
2022-12-12T20:05:53.681Z,52490.49
2022-12-12T20:08:23.983Z,52488.48
2022-12-12T20:10:54.012Z,52485.67
2022-12-12T20:13:24.050Z,52498.93
2022-12-12T20:15:54.035Z,52492.50
2022-12-12T20:18:24.105Z,52498.13
2022-12-12T20:20:58.723Z,52490.89
2022-12-12T20:23:28.822Z,52505.36
2022-12-12T20:25:58.806Z,52501.34
2022-12-12T20:28:28.926Z,52489.69
2022-12-12T20:31:05.974Z,52486.07
2022-12-12T20:33:36.038Z,52476.02
2022-12-12T20:36:06.567Z,52491.29
2022-12-12T20:38:37.251Z,52494.91
2022-12-12T20:41:11.076Z,52494.11
2022-12-12T20:43:41.213Z,52494.11
2022-12-12T20:46:14.346Z,52504.55
2022-12-12T20:48:44.524Z,52488.88
2022-12-12T20:51:45.585Z,52517.82
2022-12-12T20:54:05.251Z,52498.93
2022-12-12T20:56:35.539Z,52500.94
2022-12-12T20:59:07.733Z,52498.52
2022-12-12T21:01:37.654Z,52492.10
2022-12-12T21:04:09.705Z,52490.49
2022-12-12T21:06:39.777Z,52499.33
2022-12-12T21:09:10.590Z,52502.95
2022-12-12T21:11:40.551Z,52506.56
2022-12-12T21:14:10.440Z,52506.56
2022-12-12T21:16:40.176Z,52494.91
2022-12-12T21:19:11.623Z,52492.50
2022-12-12T21:21:41.487Z,52502.14
2022-12-12T21:24:11.298Z,52509.38
2022-12-12T21:26:41.227Z,52489.69
2022-12-12T21:29:11.064Z,52502.95
2022-12-12T21:31:48.181Z,52503.75
2022-12-12T21:34:20.958Z,52511.79
2022-12-12T21:36:52.964Z,52499.73
2022-12-12T21:39:23.455Z,52505.36
2022-12-12T21:41:53.311Z,52501.74
2022-12-12T21:44:23.350Z,52500.94
2022-12-12T21:46:53.436Z,52499.33
2022-12-12T21:49:31.178Z,52495.31
2022-12-12T21:52:01.466Z,52503.35
2022-12-12T21:54:31.483Z,52490.49
2022-12-12T21:57:01.458Z,52509.78
2022-12-12T21:59:31.416Z,52496.52
2022-12-12T22:02:01.470Z,52504.16
2022-12-12T22:04:31.297Z,52505.76
2022-12-12T22:07:01.293Z,52505.76
2022-12-12T22:09:31.213Z,52504.96
2022-12-12T22:12:04.028Z,52522.24
2022-12-12T22:14:34.458Z,52494.51
2022-12-12T22:17:04.556Z,52500.94
2022-12-12T22:19:34.294Z,52495.71
2022-12-12T22:22:04.121Z,52506.56
2022-12-12T22:24:33.969Z,52517.41
2022-12-12T22:27:03.829Z,52513.80
2022-12-12T22:29:33.581Z,52498.93
2022-12-12T22:32:03.401Z,52505.76
2022-12-12T22:34:33.573Z,52506.16
2022-12-12T22:37:03.337Z,52505.36
2022-12-12T22:39:33.240Z,52510.59
2022-12-12T22:42:02.846Z,52510.58
2022-12-12T22:44:32.733Z,52515.80
2022-12-12T22:47:02.551Z,52511.39
2022-12-12T22:49:32.598Z,52514.60
2022-12-12T22:52:02.483Z,52516.61
2022-12-12T22:54:32.196Z,52507.37
2022-12-12T22:57:01.957Z,52519.82
2022-12-12T22:59:31.714Z,52503.75
2022-12-12T23:02:01.568Z,52513.00
2022-12-12T23:04:31.503Z,52512.99
2022-12-12T23:07:01.586Z,52508.18
2022-12-12T23:09:31.400Z,52508.98
2022-12-12T23:12:01.266Z,52517.82
2022-12-12T23:14:31.195Z,52503.75
2022-12-12T23:17:00.984Z,52514.60
2022-12-12T23:19:30.957Z,52507.77
2022-12-12T23:22:00.948Z,52501.74
2022-12-12T23:24:30.678Z,52507.77
2022-12-12T23:27:00.532Z,52507.77
2022-12-12T23:29:30.251Z,52525.46
2022-12-12T23:32:03.162Z,52504.55
2022-12-12T23:34:33.150Z,52511.39
2022-12-12T23:37:02.883Z,52500.13
2022-12-12T23:39:32.550Z,52509.38
2022-12-12T23:42:02.587Z,52518.63
2022-12-12T23:44:32.510Z,52506.97
2022-12-12T23:47:02.411Z,52500.54
2022-12-12T23:49:32.332Z,52502.14
2022-12-12T23:52:02.747Z,52521.03
2022-12-12T23:54:33.721Z,52504.96
2022-12-12T23:57:03.661Z,52509.77
2022-12-12T23:59:33.599Z,52517.82
